sensor_id;sensor_type;location;lat;lon;timestamp;P1;durP1;ratioP1;P2;durP2;ratioP2
59492;SDS011;45497;43.996;22.876;2023-06-14T00:01:44;9.27;;;2.17;;
59492;SDS011;45497;43.996;22.876;2023-06-14T00:04:13;8.40;;;2.20;;
59492;SDS011;45497;43.996;22.876;2023-06-14T00:06:41;9.25;;;2.33;;
59492;SDS011;45497;43.996;22.876;2023-06-14T00:09:10;7.83;;;2.40;;
59492;SDS011;45497;43.996;22.876;2023-06-14T00:11:37;9.27;;;2.55;;
59492;SDS011;45497;43.996;22.876;2023-06-14T00:14:04;10.35;;;2.80;;
59492;SDS011;45497;43.996;22.876;2023-06-14T00:16:29;10.95;;;2.50;;
59492;SDS011;45497;43.996;22.876;2023-06-14T00:18:55;8.10;;;2.70;;
59492;SDS011;45497;43.996;22.876;2023-06-14T00:21:21;7.87;;;2.87;;
59492;SDS011;45497;43.996;22.876;2023-06-14T00:23:46;10.30;;;2.72;;
59492;SDS011;45497;43.996;22.876;2023-06-14T00:26:12;9.07;;;2.80;;
59492;SDS011;45497;43.996;22.876;2023-06-14T00:28:37;8.38;;;2.70;;
59492;SDS011;45497;43.996;22.876;2023-06-14T00:31:03;8.60;;;2.73;;
59492;SDS011;45497;43.996;22.876;2023-06-14T00:33:28;10.13;;;2.95;;
59492;SDS011;45497;43.996;22.876;2023-06-14T00:35:54;13.63;;;3.10;;
59492;SDS011;45497;43.996;22.876;2023-06-14T00:38:19;7.80;;;2.90;;
59492;SDS011;45497;43.996;22.876;2023-06-14T00:40:46;9.95;;;2.80;;
59492;SDS011;45497;43.996;22.876;2023-06-14T00:43:11;13.80;;;3.03;;
59492;SDS011;45497;43.996;22.876;2023-06-14T00:45:37;8.70;;;2.80;;
59492;SDS011;45497;43.996;22.876;2023-06-14T00:48:03;9.85;;;2.78;;
59492;SDS011;45497;43.996;22.876;2023-06-14T00:50:31;6.30;;;2.80;;
59492;SDS011;45497;43.996;22.876;2023-06-14T00:52:58;6.85;;;2.50;;
59492;SDS011;45497;43.996;22.876;2023-06-14T00:55:27;10.98;;;2.90;;
59492;SDS011;45497;43.996;22.876;2023-06-14T00:57:54;8.63;;;2.63;;
59492;SDS011;45497;43.996;22.876;2023-06-14T01:00:19;8.52;;;2.83;;
59492;SDS011;45497;43.996;22.876;2023-06-14T01:02:45;9.53;;;2.77;;
59492;SDS011;45497;43.996;22.876;2023-06-14T01:05:11;7.27;;;2.73;;
59492;SDS011;45497;43.996;22.876;2023-06-14T01:07:43;8.48;;;3.17;;
59492;SDS011;45497;43.996;22.876;2023-06-14T01:15:28;8.38;;;2.63;;
59492;SDS011;45497;43.996;22.876;2023-06-14T01:17:56;7.28;;;2.55;;
59492;SDS011;45497;43.996;22.876;2023-06-14T01:20:28;7.77;;;2.60;;
59492;SDS011;45497;43.996;22.876;2023-06-14T01:22:55;9.23;;;2.95;;
59492;SDS011;45497;43.996;22.876;2023-06-14T01:25:21;7.07;;;2.23;;
59492;SDS011;45497;43.996;22.876;2023-06-14T01:27:51;8.25;;;3.10;;
59492;SDS011;45497;43.996;22.876;2023-06-14T01:30:22;5.77;;;2.87;;
59492;SDS011;45497;43.996;22.876;2023-06-14T01:32:50;6.15;;;3.22;;
59492;SDS011;45497;43.996;22.876;2023-06-14T01:35:17;5.60;;;2.63;;
59492;SDS011;45497;43.996;22.876;2023-06-14T01:37:43;6.63;;;2.70;;
59492;SDS011;45497;43.996;22.876;2023-06-14T01:40:11;6.05;;;2.40;;
59492;SDS011;45497;43.996;22.876;2023-06-14T01:42:39;6.80;;;2.53;;
59492;SDS011;45497;43.996;22.876;2023-06-14T01:45:06;4.43;;;2.60;;
59492;SDS011;45497;43.996;22.876;2023-06-14T01:47:32;6.57;;;2.80;;
59492;SDS011;45497;43.996;22.876;2023-06-14T01:49:59;6.15;;;2.80;;
59492;SDS011;45497;43.996;22.876;2023-06-14T01:52:25;11.47;;;3.30;;
59492;SDS011;45497;43.996;22.876;2023-06-14T01:54:50;8.82;;;2.85;;
59492;SDS011;45497;43.996;22.876;2023-06-14T01:57:16;7.23;;;2.90;;
59492;SDS011;45497;43.996;22.876;2023-06-14T01:59:42;6.78;;;3.10;;
59492;SDS011;45497;43.996;22.876;2023-06-14T02:02:07;5.37;;;2.60;;
59492;SDS011;45497;43.996;22.876;2023-06-14T02:04:33;5.70;;;2.93;;
59492;SDS011;45497;43.996;22.876;2023-06-14T02:06:59;10.93;;;3.50;;
59492;SDS011;45497;43.996;22.876;2023-06-14T02:09:24;7.13;;;3.15;;
59492;SDS011;45497;43.996;22.876;2023-06-14T02:11:50;5.93;;;2.70;;
59492;SDS011;45497;43.996;22.876;2023-06-14T02:14:15;9.40;;;3.35;;
59492;SDS011;45497;43.996;22.876;2023-06-14T02:16:42;8.13;;;2.80;;
59492;SDS011;45497;43.996;22.876;2023-06-14T02:19:14;6.72;;;2.78;;
59492;SDS011;45497;43.996;22.876;2023-06-14T02:21:41;10.85;;;3.38;;
59492;SDS011;45497;43.996;22.876;2023-06-14T02:24:07;6.78;;;2.88;;
59492;SDS011;45497;43.996;22.876;2023-06-14T02:26:32;4.05;;;2.53;;
59492;SDS011;45497;43.996;22.876;2023-06-14T02:28:58;9.90;;;2.87;;
59492;SDS011;45497;43.996;22.876;2023-06-14T02:31:23;6.70;;;3.15;;
59492;SDS011;45497;43.996;22.876;2023-06-14T02:33:49;7.03;;;3.13;;
59492;SDS011;45497;43.996;22.876;2023-06-14T02:36:15;5.20;;;2.80;;
59492;SDS011;45497;43.996;22.876;2023-06-14T02:38:40;7.75;;;3.20;;
59492;SDS011;45497;43.996;22.876;2023-06-14T02:41:06;7.23;;;3.00;;
59492;SDS011;45497;43.996;22.876;2023-06-14T02:43:31;8.63;;;3.30;;
59492;SDS011;45497;43.996;22.876;2023-06-14T02:45:57;7.47;;;3.30;;
59492;SDS011;45497;43.996;22.876;2023-06-14T02:48:22;7.03;;;3.50;;
59492;SDS011;45497;43.996;22.876;2023-06-14T02:50:48;10.57;;;3.70;;
59492;SDS011;45497;43.996;22.876;2023-06-14T02:53:13;9.50;;;3.40;;
59492;SDS011;45497;43.996;22.876;2023-06-14T02:55:38;7.30;;;3.28;;
59492;SDS011;45497;43.996;22.876;2023-06-14T02:58:05;9.35;;;3.38;;
59492;SDS011;45497;43.996;22.876;2023-06-14T03:00:31;7.25;;;3.58;;
59492;SDS011;45497;43.996;22.876;2023-06-14T03:02:56;5.57;;;3.23;;
59492;SDS011;45497;43.996;22.876;2023-06-14T03:05:22;7.40;;;3.60;;
59492;SDS011;45497;43.996;22.876;2023-06-14T03:07:48;8.07;;;3.40;;
59492;SDS011;45497;43.996;22.876;2023-06-14T03:10:15;8.25;;;3.95;;
59492;SDS011;45497;43.996;22.876;2023-06-14T03:12:41;6.88;;;3.85;;
59492;SDS011;45497;43.996;22.876;2023-06-14T03:15:06;11.73;;;3.97;;
59492;SDS011;45497;43.996;22.876;2023-06-14T03:17:32;6.53;;;3.95;;
59492;SDS011;45497;43.996;22.876;2023-06-14T03:20:00;8.75;;;3.90;;
59492;SDS011;45497;43.996;22.876;2023-06-14T03:22:26;10.60;;;4.53;;
59492;SDS011;45497;43.996;22.876;2023-06-14T03:24:52;8.17;;;3.63;;
59492;SDS011;45497;43.996;22.876;2023-06-14T03:27:19;9.90;;;3.75;;
59492;SDS011;45497;43.996;22.876;2023-06-14T03:29:44;8.47;;;4.20;;
59492;SDS011;45497;43.996;22.876;2023-06-14T03:32:10;6.83;;;3.43;;
59492;SDS011;45497;43.996;22.876;2023-06-14T03:34:36;7.80;;;3.72;;
59492;SDS011;45497;43.996;22.876;2023-06-14T03:37:03;6.88;;;3.75;;
59492;SDS011;45497;43.996;22.876;2023-06-14T03:39:29;6.05;;;3.40;;
59492;SDS011;45497;43.996;22.876;2023-06-14T03:41:54;7.43;;;3.67;;
59492;SDS011;45497;43.996;22.876;2023-06-14T03:44:20;4.55;;;3.38;;
59492;SDS011;45497;43.996;22.876;2023-06-14T03:46:46;6.00;;;3.25;;
59492;SDS011;45497;43.996;22.876;2023-06-14T03:49:13;10.43;;;4.20;;
59492;SDS011;45497;43.996;22.876;2023-06-14T03:51:38;6.30;;;3.33;;
59492;SDS011;45497;43.996;22.876;2023-06-14T03:54:05;8.85;;;3.75;;
59492;SDS011;45497;43.996;22.876;2023-06-14T03:56:31;5.57;;;3.65;;
59492;SDS011;45497;43.996;22.876;2023-06-14T03:58:56;6.37;;;3.47;;
59492;SDS011;45497;43.996;22.876;2023-06-14T04:01:22;11.95;;;3.78;;
59492;SDS011;45497;43.996;22.876;2023-06-14T04:03:55;6.65;;;3.78;;
59492;SDS011;45497;43.996;22.876;2023-06-14T04:06:21;10.68;;;4.10;;
59492;SDS011;45497;43.996;22.876;2023-06-14T04:08:50;9.10;;;4.07;;
59492;SDS011;45497;43.996;22.876;2023-06-14T04:11:16;8.60;;;4.03;;
59492;SDS011;45497;43.996;22.876;2023-06-14T04:13:41;7.67;;;3.93;;
59492;SDS011;45497;43.996;22.876;2023-06-14T04:16:07;8.93;;;4.20;;
59492;SDS011;45497;43.996;22.876;2023-06-14T04:18:32;10.23;;;4.10;;
59492;SDS011;45497;43.996;22.876;2023-06-14T04:20:58;10.07;;;4.80;;
59492;SDS011;45497;43.996;22.876;2023-06-14T04:23:24;9.05;;;4.45;;
59492;SDS011;45497;43.996;22.876;2023-06-14T04:25:49;9.70;;;4.30;;
59492;SDS011;45497;43.996;22.876;2023-06-14T04:28:15;7.10;;;4.15;;
59492;SDS011;45497;43.996;22.876;2023-06-14T04:30:42;11.10;;;4.37;;
59492;SDS011;45497;43.996;22.876;2023-06-14T04:33:08;9.68;;;4.45;;
59492;SDS011;45497;43.996;22.876;2023-06-14T04:35:35;7.63;;;4.18;;
59492;SDS011;45497;43.996;22.876;2023-06-14T04:38:02;8.53;;;4.27;;
59492;SDS011;45497;43.996;22.876;2023-06-14T04:40:34;8.38;;;4.45;;
59492;SDS011;45497;43.996;22.876;2023-06-14T04:43:01;6.03;;;4.32;;
59492;SDS011;45497;43.996;22.876;2023-06-14T04:45:29;7.28;;;4.10;;
59492;SDS011;45497;43.996;22.876;2023-06-14T04:47:58;8.40;;;4.20;;
59492;SDS011;45497;43.996;22.876;2023-06-14T04:50:24;5.87;;;3.60;;
59492;SDS011;45497;43.996;22.876;2023-06-14T04:52:50;6.83;;;3.70;;
59492;SDS011;45497;43.996;22.876;2023-06-14T04:55:16;9.75;;;4.03;;
59492;SDS011;45497;43.996;22.876;2023-06-14T04:57:44;8.15;;;3.92;;
59492;SDS011;45497;43.996;22.876;2023-06-14T05:00:10;8.95;;;4.07;;
59492;SDS011;45497;43.996;22.876;2023-06-14T05:02:36;7.90;;;4.18;;
59492;SDS011;45497;43.996;22.876;2023-06-14T05:05:03;6.80;;;4.10;;
59492;SDS011;45497;43.996;22.876;2023-06-14T05:07:29;7.60;;;4.20;;
59492;SDS011;45497;43.996;22.876;2023-06-14T05:09:55;6.67;;;4.00;;
59492;SDS011;45497;43.996;22.876;2023-06-14T05:12:20;6.82;;;3.65;;
59492;SDS011;45497;43.996;22.876;2023-06-14T05:14:46;6.20;;;4.07;;
59492;SDS011;45497;43.996;22.876;2023-06-14T05:17:11;6.90;;;4.30;;
59492;SDS011;45497;43.996;22.876;2023-06-14T05:19:37;8.30;;;4.30;;
59492;SDS011;45497;43.996;22.876;2023-06-14T05:22:02;8.00;;;4.00;;
59492;SDS011;45497;43.996;22.876;2023-06-14T05:24:28;6.00;;;4.10;;
59492;SDS011;45497;43.996;22.876;2023-06-14T05:26:55;6.90;;;4.28;;
59492;SDS011;45497;43.996;22.876;2023-06-14T05:29:21;5.50;;;3.72;;
59492;SDS011;45497;43.996;22.876;2023-06-14T05:31:47;7.13;;;4.40;;
59492;SDS011;45497;43.996;22.876;2023-06-14T05:34:12;4.33;;;3.27;;
59492;SDS011;45497;43.996;22.876;2023-06-14T05:36:38;4.87;;;3.43;;
59492;SDS011;45497;43.996;22.876;2023-06-14T05:39:04;5.53;;;3.70;;
59492;SDS011;45497;43.996;22.876;2023-06-14T05:41:30;8.07;;;3.65;;
59492;SDS011;45497;43.996;22.876;2023-06-14T05:43:57;4.93;;;3.40;;
59492;SDS011;45497;43.996;22.876;2023-06-14T05:46:23;7.73;;;3.50;;
59492;SDS011;45497;43.996;22.876;2023-06-14T05:48:53;5.03;;;3.47;;
59492;SDS011;45497;43.996;22.876;2023-06-14T05:51:19;5.32;;;3.28;;
59492;SDS011;45497;43.996;22.876;2023-06-14T05:53:45;6.83;;;3.57;;
59492;SDS011;45497;43.996;22.876;2023-06-14T05:56:11;6.22;;;3.50;;
59492;SDS011;45497;43.996;22.876;2023-06-14T05:58:37;4.67;;;3.40;;
59492;SDS011;45497;43.996;22.876;2023-06-14T06:01:03;5.27;;;3.30;;
59492;SDS011;45497;43.996;22.876;2023-06-14T06:03:28;5.57;;;3.30;;
59492;SDS011;45497;43.996;22.876;2023-06-14T06:05:57;6.78;;;3.60;;
59492;SDS011;45497;43.996;22.876;2023-06-14T06:08:23;6.13;;;3.63;;
59492;SDS011;45497;43.996;22.876;2023-06-14T06:10:48;5.40;;;3.40;;
59492;SDS011;45497;43.996;22.876;2023-06-14T06:13:14;5.77;;;3.60;;
59492;SDS011;45497;43.996;22.876;2023-06-14T06:15:40;4.65;;;3.50;;
59492;SDS011;45497;43.996;22.876;2023-06-14T06:18:05;4.13;;;3.50;;
59492;SDS011;45497;43.996;22.876;2023-06-14T06:20:31;7.33;;;4.17;;
59492;SDS011;45497;43.996;22.876;2023-06-14T06:22:57;4.97;;;3.50;;
59492;SDS011;45497;43.996;22.876;2023-06-14T06:25:24;6.93;;;4.10;;
59492;SDS011;45497;43.996;22.876;2023-06-14T06:27:51;6.75;;;3.50;;
59492;SDS011;45497;43.996;22.876;2023-06-14T06:30:19;7.53;;;3.53;;
59492;SDS011;45497;43.996;22.876;2023-06-14T06:32:45;5.75;;;3.47;;
59492;SDS011;45497;43.996;22.876;2023-06-14T06:35:11;5.00;;;3.20;;
59492;SDS011;45497;43.996;22.876;2023-06-14T06:37:38;3.83;;;3.20;;
59492;SDS011;45497;43.996;22.876;2023-06-14T06:40:04;6.85;;;3.38;;
59492;SDS011;45497;43.996;22.876;2023-06-14T06:42:31;5.50;;;3.28;;
59492;SDS011;45497;43.996;22.876;2023-06-14T06:44:57;4.72;;;3.60;;
59492;SDS011;45497;43.996;22.876;2023-06-14T06:47:22;4.27;;;3.10;;
59492;SDS011;45497;43.996;22.876;2023-06-14T06:49:48;4.80;;;3.10;;
59492;SDS011;45497;43.996;22.876;2023-06-14T06:52:13;5.50;;;3.10;;
59492;SDS011;45497;43.996;22.876;2023-06-14T06:54:39;6.07;;;3.38;;
59492;SDS011;45497;43.996;22.876;2023-06-14T06:57:05;5.97;;;3.57;;
59492;SDS011;45497;43.996;22.876;2023-06-14T06:59:31;3.80;;;2.73;;
59492;SDS011;45497;43.996;22.876;2023-06-14T07:01:56;3.50;;;2.60;;
59492;SDS011;45497;43.996;22.876;2023-06-14T07:04:22;6.77;;;2.80;;
59492;SDS011;45497;43.996;22.876;2023-06-14T07:06:47;4.32;;;3.10;;
59492;SDS011;45497;43.996;22.876;2023-06-14T07:09:13;4.97;;;3.50;;
59492;SDS011;45497;43.996;22.876;2023-06-14T07:11:41;5.40;;;3.37;;
59492;SDS011;45497;43.996;22.876;2023-06-14T07:14:09;3.50;;;3.05;;
59492;SDS011;45497;43.996;22.876;2023-06-14T07:16:35;6.70;;;3.30;;
59492;SDS011;45497;43.996;22.876;2023-06-14T07:19:03;5.68;;;3.67;;
59492;SDS011;45497;43.996;22.876;2023-06-14T07:21:29;6.05;;;3.72;;
59492;SDS011;45497;43.996;22.876;2023-06-14T07:23:55;4.90;;;3.70;;
59492;SDS011;45497;43.996;22.876;2023-06-14T07:26:21;4.93;;;3.70;;
59492;SDS011;45497;43.996;22.876;2023-06-14T07:28:47;5.68;;;3.83;;
59492;SDS011;45497;43.996;22.876;2023-06-14T07:31:14;5.25;;;3.80;;
59492;SDS011;45497;43.996;22.876;2023-06-14T07:33:40;6.17;;;4.00;;
59492;SDS011;45497;43.996;22.876;2023-06-14T07:36:06;9.77;;;4.13;;
59492;SDS011;45497;43.996;22.876;2023-06-14T07:38:32;7.05;;;4.20;;
59492;SDS011;45497;43.996;22.876;2023-06-14T07:40:57;5.88;;;4.00;;
59492;SDS011;45497;43.996;22.876;2023-06-14T07:43:23;5.93;;;4.20;;
59492;SDS011;45497;43.996;22.876;2023-06-14T07:45:48;5.03;;;3.80;;
59492;SDS011;45497;43.996;22.876;2023-06-14T07:48:15;4.50;;;3.88;;
59492;SDS011;45497;43.996;22.876;2023-06-14T07:50:41;6.82;;;4.40;;
59492;SDS011;45497;43.996;22.876;2023-06-14T07:53:07;9.70;;;4.37;;
59492;SDS011;45497;43.996;22.876;2023-06-14T07:55:33;7.05;;;3.95;;
59492;SDS011;45497;43.996;22.876;2023-06-14T07:58:01;5.45;;;3.90;;
59492;SDS011;45497;43.996;22.876;2023-06-14T08:00:28;6.50;;;3.90;;
59492;SDS011;45497;43.996;22.876;2023-06-14T08:02:53;7.15;;;3.80;;
59492;SDS011;45497;43.996;22.876;2023-06-14T08:05:23;7.32;;;4.60;;
59492;SDS011;45497;43.996;22.876;2023-06-14T08:07:49;6.30;;;4.40;;
59492;SDS011;45497;43.996;22.876;2023-06-14T08:10:15;8.43;;;5.37;;
59492;SDS011;45497;43.996;22.876;2023-06-14T08:12:40;7.50;;;4.25;;
59492;SDS011;45497;43.996;22.876;2023-06-14T08:15:06;11.73;;;5.27;;
59492;SDS011;45497;43.996;22.876;2023-06-14T08:17:32;8.60;;;5.13;;
59492;SDS011;45497;43.996;22.876;2023-06-14T08:19:58;6.22;;;5.05;;
59492;SDS011;45497;43.996;22.876;2023-06-14T08:22:24;8.35;;;5.43;;
59492;SDS011;45497;43.996;22.876;2023-06-14T08:24:53;9.63;;;5.63;;
59492;SDS011;45497;43.996;22.876;2023-06-14T08:27:19;7.10;;;4.97;;
59492;SDS011;45497;43.996;22.876;2023-06-14T08:29:45;7.72;;;5.20;;
59492;SDS011;45497;43.996;22.876;2023-06-14T08:32:11;7.82;;;5.45;;
59492;SDS011;45497;43.996;22.876;2023-06-14T08:34:37;8.25;;;5.13;;
59492;SDS011;45497;43.996;22.876;2023-06-14T08:37:03;10.67;;;5.30;;
59492;SDS011;45497;43.996;22.876;2023-06-14T08:39:29;11.30;;;5.63;;
59492;SDS011;45497;43.996;22.876;2023-06-14T08:41:54;7.27;;;5.37;;
59492;SDS011;45497;43.996;22.876;2023-06-14T08:44:21;6.97;;;5.88;;
59492;SDS011;45497;43.996;22.876;2023-06-14T08:46:47;8.43;;;5.83;;
59492;SDS011;45497;43.996;22.876;2023-06-14T08:49:13;8.80;;;5.93;;
59492;SDS011;45497;43.996;22.876;2023-06-14T08:51:41;10.80;;;6.13;;
59492;SDS011;45497;43.996;22.876;2023-06-14T08:54:08;10.18;;;6.28;;
59492;SDS011;45497;43.996;22.876;2023-06-14T08:56:37;10.32;;;5.88;;
59492;SDS011;45497;43.996;22.876;2023-06-14T08:59:04;9.02;;;6.05;;
59492;SDS011;45497;43.996;22.876;2023-06-14T09:01:33;12.47;;;6.50;;
59492;SDS011;45497;43.996;22.876;2023-06-14T09:03:59;9.00;;;6.30;;
59492;SDS011;45497;43.996;22.876;2023-06-14T09:06:25;8.13;;;5.43;;
59492;SDS011;45497;43.996;22.876;2023-06-14T09:08:53;7.17;;;5.30;;
59492;SDS011;45497;43.996;22.876;2023-06-14T09:11:21;7.55;;;4.55;;
59492;SDS011;45497;43.996;22.876;2023-06-14T09:13:47;8.47;;;5.00;;
59492;SDS011;45497;43.996;22.876;2023-06-14T09:16:14;6.70;;;4.88;;
59492;SDS011;45497;43.996;22.876;2023-06-14T09:18:43;9.77;;;4.90;;
59492;SDS011;45497;43.996;22.876;2023-06-14T09:21:12;7.63;;;5.40;;
59492;SDS011;45497;43.996;22.876;2023-06-14T09:23:42;8.17;;;5.20;;
59492;SDS011;45497;43.996;22.876;2023-06-14T09:26:13;8.00;;;5.70;;
59492;SDS011;45497;43.996;22.876;2023-06-14T09:31:12;11.23;;;6.07;;
59492;SDS011;45497;43.996;22.876;2023-06-14T09:33:38;8.95;;;5.57;;
59492;SDS011;45497;43.996;22.876;2023-06-14T09:36:11;6.60;;;5.77;;
59492;SDS011;45497;43.996;22.876;2023-06-14T09:38:41;9.82;;;6.07;;
59492;SDS011;45497;43.996;22.876;2023-06-14T09:41:06;8.70;;;6.70;;
59492;SDS011;45497;43.996;22.876;2023-06-14T09:43:32;11.20;;;6.20;;
59492;SDS011;45497;43.996;22.876;2023-06-14T09:46:00;7.53;;;6.07;;
59492;SDS011;45497;43.996;22.876;2023-06-14T09:48:25;6.53;;;5.60;;
59492;SDS011;45497;43.996;22.876;2023-06-14T09:50:51;9.53;;;6.07;;
59492;SDS011;45497;43.996;22.876;2023-06-14T09:53:21;9.07;;;6.40;;
59492;SDS011;45497;43.996;22.876;2023-06-14T09:55:50;8.60;;;6.22;;
59492;SDS011;45497;43.996;22.876;2023-06-14T09:58:17;8.65;;;6.40;;
59492;SDS011;45497;43.996;22.876;2023-06-14T10:00:45;11.45;;;7.65;;
59492;SDS011;45497;43.996;22.876;2023-06-14T10:03:13;11.45;;;7.70;;
59492;SDS011;45497;43.996;22.876;2023-06-14T10:05:43;10.55;;;7.90;;
59492;SDS011;45497;43.996;22.876;2023-06-14T10:08:12;9.93;;;7.30;;
59492;SDS011;45497;43.996;22.876;2023-06-14T10:10:43;9.30;;;7.55;;
59492;SDS011;45497;43.996;22.876;2023-06-14T10:13:09;8.57;;;7.68;;
59492;SDS011;45497;43.996;22.876;2023-06-14T10:15:48;10.40;;;6.77;;
59492;SDS011;45497;43.996;22.876;2023-06-14T10:18:31;10.85;;;7.35;;
59492;SDS011;45497;43.996;22.876;2023-06-14T10:21:03;10.80;;;7.63;;
59492;SDS011;45497;43.996;22.876;2023-06-14T10:23:50;9.95;;;7.70;;
59492;SDS011;45497;43.996;22.876;2023-06-14T10:26:20;9.80;;;7.83;;
59492;SDS011;45497;43.996;22.876;2023-06-14T10:28:57;11.35;;;7.72;;
59492;SDS011;45497;43.996;22.876;2023-06-14T10:31:23;11.02;;;7.40;;
59492;SDS011;45497;43.996;22.876;2023-06-14T10:34:06;11.20;;;7.30;;
59492;SDS011;45497;43.996;22.876;2023-06-14T10:36:31;10.68;;;7.47;;
59492;SDS011;45497;43.996;22.876;2023-06-14T10:39:00;11.80;;;8.00;;
59492;SDS011;45497;43.996;22.876;2023-06-14T10:41:30;8.85;;;7.68;;
59492;SDS011;45497;43.996;22.876;2023-06-14T10:46:37;10.35;;;7.45;;
59492;SDS011;45497;43.996;22.876;2023-06-14T10:49:03;9.83;;;7.63;;
59492;SDS011;45497;43.996;22.876;2023-06-14T10:51:52;10.60;;;7.60;;
59492;SDS011;45497;43.996;22.876;2023-06-14T10:54:20;9.23;;;7.35;;
59492;SDS011;45497;43.996;22.876;2023-06-14T10:56:47;10.23;;;7.75;;
59492;SDS011;45497;43.996;22.876;2023-06-14T10:59:17;8.15;;;6.97;;
59492;SDS011;45497;43.996;22.876;2023-06-14T11:04:48;11.90;;;7.37;;
59492;SDS011;45497;43.996;22.876;2023-06-14T11:12:31;11.88;;;7.32;;
59492;SDS011;45497;43.996;22.876;2023-06-14T11:15:00;9.38;;;7.13;;
59492;SDS011;45497;43.996;22.876;2023-06-14T11:17:26;8.35;;;6.82;;
59492;SDS011;45497;43.996;22.876;2023-06-14T11:20:07;9.68;;;6.97;;
59492;SDS011;45497;43.996;22.876;2023-06-14T11:22:44;10.35;;;6.80;;
59492;SDS011;45497;43.996;22.876;2023-06-14T11:25:13;16.13;;;7.50;;
59492;SDS011;45497;43.996;22.876;2023-06-14T11:27:42;9.67;;;7.30;;
59492;SDS011;45497;43.996;22.876;2023-06-14T11:30:08;10.38;;;7.50;;
59492;SDS011;45497;43.996;22.876;2023-06-14T11:32:35;10.65;;;6.85;;
59492;SDS011;45497;43.996;22.876;2023-06-14T11:35:02;13.18;;;7.88;;
59492;SDS011;45497;43.996;22.876;2023-06-14T11:37:29;9.75;;;6.45;;
59492;SDS011;45497;43.996;22.876;2023-06-14T11:39:59;9.07;;;6.80;;
59492;SDS011;45497;43.996;22.876;2023-06-14T11:42:28;10.00;;;7.03;;
59492;SDS011;45497;43.996;22.876;2023-06-14T11:44:54;9.48;;;6.80;;
59492;SDS011;45497;43.996;22.876;2023-06-14T11:47:20;9.75;;;6.80;;
59492;SDS011;45497;43.996;22.876;2023-06-14T11:49:46;10.83;;;6.53;;
59492;SDS011;45497;43.996;22.876;2023-06-14T11:52:12;9.55;;;6.50;;
59492;SDS011;45497;43.996;22.876;2023-06-14T11:54:37;9.40;;;6.18;;
59492;SDS011;45497;43.996;22.876;2023-06-14T11:57:05;10.00;;;5.95;;
59492;SDS011;45497;43.996;22.876;2023-06-14T11:59:32;8.52;;;5.15;;
59492;SDS011;45497;43.996;22.876;2023-06-14T12:02:06;7.90;;;5.30;;
59492;SDS011;45497;43.996;22.876;2023-06-14T12:04:32;7.38;;;5.32;;
59492;SDS011;45497;43.996;22.876;2023-06-14T12:07:10;9.60;;;5.40;;
59492;SDS011;45497;43.996;22.876;2023-06-14T12:09:40;6.25;;;4.95;;
59492;SDS011;45497;43.996;22.876;2023-06-14T12:12:09;7.03;;;4.75;;
59492;SDS011;45497;43.996;22.876;2023-06-14T12:14:35;9.45;;;5.00;;
59492;SDS011;45497;43.996;22.876;2023-06-14T12:17:07;6.67;;;4.83;;
59492;SDS011;45497;43.996;22.876;2023-06-14T12:19:33;7.40;;;4.97;;
59492;SDS011;45497;43.996;22.876;2023-06-14T12:22:09;7.63;;;4.85;;
59492;SDS011;45497;43.996;22.876;2023-06-14T12:24:35;9.65;;;5.10;;
59492;SDS011;45497;43.996;22.876;2023-06-14T12:27:00;8.27;;;5.10;;
59492;SDS011;45497;43.996;22.876;2023-06-14T12:29:28;8.88;;;5.30;;
59492;SDS011;45497;43.996;22.876;2023-06-14T12:31:54;9.60;;;5.22;;
59492;SDS011;45497;43.996;22.876;2023-06-14T12:34:22;9.13;;;5.07;;
59492;SDS011;45497;43.996;22.876;2023-06-14T12:36:49;9.45;;;4.95;;
59492;SDS011;45497;43.996;22.876;2023-06-14T12:39:15;7.63;;;5.05;;
59492;SDS011;45497;43.996;22.876;2023-06-14T12:41:41;8.47;;;5.23;;
59492;SDS011;45497;43.996;22.876;2023-06-14T12:44:09;7.75;;;4.90;;
59492;SDS011;45497;43.996;22.876;2023-06-14T12:46:36;7.95;;;4.97;;
59492;SDS011;45497;43.996;22.876;2023-06-14T12:49:02;8.25;;;5.03;;
59492;SDS011;45497;43.996;22.876;2023-06-14T12:51:27;7.32;;;4.65;;
59492;SDS011;45497;43.996;22.876;2023-06-14T12:53:53;6.93;;;4.80;;
59492;SDS011;45497;43.996;22.876;2023-06-14T12:56:19;7.70;;;5.00;;
59492;SDS011;45497;43.996;22.876;2023-06-14T12:58:45;7.32;;;5.55;;
59492;SDS011;45497;43.996;22.876;2023-06-14T13:01:10;6.93;;;4.87;;
59492;SDS011;45497;43.996;22.876;2023-06-14T13:03:36;6.60;;;5.03;;
59492;SDS011;45497;43.996;22.876;2023-06-14T13:06:01;6.65;;;4.70;;
59492;SDS011;45497;43.996;22.876;2023-06-14T13:08:29;7.30;;;5.00;;
59492;SDS011;45497;43.996;22.876;2023-06-14T13:10:55;6.25;;;4.47;;
59492;SDS011;45497;43.996;22.876;2023-06-14T13:13:21;5.78;;;4.50;;
59492;SDS011;45497;43.996;22.876;2023-06-14T13:15:46;8.52;;;5.18;;
59492;SDS011;45497;43.996;22.876;2023-06-14T13:18:14;7.82;;;4.97;;
59492;SDS011;45497;43.996;22.876;2023-06-14T13:20:39;7.13;;;4.90;;
59492;SDS011;45497;43.996;22.876;2023-06-14T13:23:05;7.60;;;5.00;;
59492;SDS011;45497;43.996;22.876;2023-06-14T13:25:32;8.27;;;5.15;;
59492;SDS011;45497;43.996;22.876;2023-06-14T13:28:00;8.95;;;5.20;;
59492;SDS011;45497;43.996;22.876;2023-06-14T13:30:25;7.13;;;5.20;;
59492;SDS011;45497;43.996;22.876;2023-06-14T13:32:51;7.32;;;5.28;;
59492;SDS011;45497;43.996;22.876;2023-06-14T13:35:17;7.63;;;5.30;;
59492;SDS011;45497;43.996;22.876;2023-06-14T13:37:43;10.40;;;5.23;;
59492;SDS011;45497;43.996;22.876;2023-06-14T13:40:09;8.73;;;5.65;;
59492;SDS011;45497;43.996;22.876;2023-06-14T13:42:35;6.82;;;5.07;;
59492;SDS011;45497;43.996;22.876;2023-06-14T13:45:01;7.30;;;5.20;;
59492;SDS011;45497;43.996;22.876;2023-06-14T13:47:30;7.78;;;5.40;;
59492;SDS011;45497;43.996;22.876;2023-06-14T13:49:57;10.45;;;5.57;;
59492;SDS011;45497;43.996;22.876;2023-06-14T13:52:23;7.43;;;5.40;;
59492;SDS011;45497;43.996;22.876;2023-06-14T13:54:49;8.02;;;5.53;;
59492;SDS011;45497;43.996;22.876;2023-06-14T13:57:15;9.33;;;5.50;;
59492;SDS011;45497;43.996;22.876;2023-06-14T13:59:41;8.15;;;5.30;;
59492;SDS011;45497;43.996;22.876;2023-06-14T14:02:07;8.85;;;5.30;;
59492;SDS011;45497;43.996;22.876;2023-06-14T14:04:33;10.02;;;5.57;;
59492;SDS011;45497;43.996;22.876;2023-06-14T14:07:00;9.85;;;5.53;;
59492;SDS011;45497;43.996;22.876;2023-06-14T14:09:26;9.20;;;5.40;;
59492;SDS011;45497;43.996;22.876;2023-06-14T14:11:52;6.87;;;5.23;;
59492;SDS011;45497;43.996;22.876;2023-06-14T14:14:17;10.95;;;5.47;;
59492;SDS011;45497;43.996;22.876;2023-06-14T14:16:43;7.90;;;5.10;;
59492;SDS011;45497;43.996;22.876;2023-06-14T14:19:09;11.27;;;5.60;;
59492;SDS011;45497;43.996;22.876;2023-06-14T14:21:34;7.77;;;5.23;;
59492;SDS011;45497;43.996;22.876;2023-06-14T14:24:00;9.27;;;5.23;;
59492;SDS011;45497;43.996;22.876;2023-06-14T14:26:26;8.05;;;5.10;;
59492;SDS011;45497;43.996;22.876;2023-06-14T14:28:51;7.60;;;4.70;;
59492;SDS011;45497;43.996;22.876;2023-06-14T14:31:17;6.50;;;4.43;;
59492;SDS011;45497;43.996;22.876;2023-06-14T14:33:43;8.38;;;4.70;;
59492;SDS011;45497;43.996;22.876;2023-06-14T14:36:09;6.07;;;4.40;;
59492;SDS011;45497;43.996;22.876;2023-06-14T14:38:34;8.65;;;4.70;;
59492;SDS011;45497;43.996;22.876;2023-06-14T14:41:00;6.27;;;4.30;;
59492;SDS011;45497;43.996;22.876;2023-06-14T14:43:25;8.37;;;4.43;;
59492;SDS011;45497;43.996;22.876;2023-06-14T14:45:51;7.53;;;4.72;;
59492;SDS011;45497;43.996;22.876;2023-06-14T14:48:17;7.80;;;4.63;;
59492;SDS011;45497;43.996;22.876;2023-06-14T14:50:42;8.82;;;4.72;;